createdAt,value
2024-01-21T00:00:16.478Z,12.40
2024-01-21T00:01:16.400Z,12.40
2024-01-21T00:02:16.200Z,12.60
2024-01-21T00:03:16.329Z,13.40
2024-01-21T00:04:16.215Z,13.20
2024-01-21T00:05:16.265Z,13.20
2024-01-21T00:06:16.202Z,12.80
2024-01-21T00:07:16.129Z,12.40
2024-01-21T00:08:16.135Z,12.30
2024-01-21T00:09:16.206Z,13.40
2024-01-21T00:10:16.153Z,13.10
2024-01-21T00:11:16.182Z,13.00
2024-01-21T00:12:16.105Z,12.70
2024-01-21T00:13:16.101Z,12.40
2024-01-21T00:14:16.132Z,12.20
2024-01-21T00:15:16.122Z,13.50
2024-01-21T00:16:16.058Z,13.00
2024-01-21T00:17:16.086Z,14.10
2024-01-21T00:18:16.136Z,11.90
2024-01-21T00:19:16.108Z,12.40
2024-01-21T00:20:18.398Z,12.80
2024-01-21T00:21:16.032Z,13.80
2024-01-21T00:22:15.991Z,12.10
2024-01-21T00:23:16.837Z,12.80
2024-01-21T00:24:16.029Z,13.30
2024-01-21T00:25:15.923Z,12.40
2024-01-21T00:26:15.920Z,13.00
2024-01-21T00:27:15.980Z,12.50
2024-01-21T00:28:15.964Z,12.70
2024-01-21T00:29:15.941Z,13.70
2024-01-21T00:30:15.931Z,13.30
2024-01-21T00:31:15.937Z,12.00
2024-01-21T00:32:15.965Z,12.90
2024-01-21T00:33:16.053Z,12.10
2024-01-21T00:34:15.902Z,13.30
2024-01-21T00:35:15.958Z,12.70
2024-01-21T00:36:15.853Z,12.60
2024-01-21T00:37:15.878Z,12.80
2024-01-21T00:38:15.803Z,12.30
2024-01-21T00:39:15.819Z,12.00
2024-01-21T00:40:15.813Z,12.50
2024-01-21T00:41:15.803Z,12.60
2024-01-21T00:42:15.796Z,12.60
2024-01-21T00:43:15.753Z,12.20
2024-01-21T00:44:15.740Z,13.90
2024-01-21T00:45:15.778Z,12.60
2024-01-21T00:46:15.796Z,13.00
2024-01-21T00:47:16.015Z,13.50
2024-01-21T00:48:15.945Z,12.80
2024-01-21T00:49:15.767Z,13.40
2024-01-21T00:50:15.695Z,12.90
2024-01-21T00:51:15.757Z,13.10
2024-01-21T00:52:15.740Z,12.80
2024-01-21T00:53:15.668Z,12.60
2024-01-21T00:54:15.660Z,12.90
2024-01-21T00:55:15.668Z,11.30
2024-01-21T00:56:15.674Z,12.70
2024-01-21T00:57:15.644Z,12.30
2024-01-21T00:58:15.630Z,12.60
2024-01-21T00:59:15.663Z,13.30
2024-01-21T01:00:15.604Z,12.10
2024-01-21T01:01:15.734Z,11.30
2024-01-21T01:02:15.602Z,12.20
2024-01-21T01:03:15.564Z,12.70
2024-01-21T01:04:15.773Z,12.10
2024-01-21T01:05:15.514Z,12.30
2024-01-21T01:06:15.583Z,12.90
2024-01-21T01:07:15.505Z,13.10
2024-01-21T01:08:15.509Z,14.00
2024-01-21T01:09:15.509Z,13.30
2024-01-21T01:10:15.557Z,13.60
2024-01-21T01:11:15.505Z,12.90
2024-01-21T01:12:15.643Z,13.60
2024-01-21T01:13:15.449Z,12.60
2024-01-21T01:14:15.446Z,13.10
2024-01-21T01:15:15.496Z,12.70
2024-01-21T01:16:15.441Z,13.70
2024-01-21T01:17:15.413Z,12.90
2024-01-21T01:18:15.626Z,12.60
2024-01-21T01:19:15.493Z,13.20
2024-01-21T01:20:15.401Z,14.90
2024-01-21T01:21:15.396Z,13.60
2024-01-21T01:22:15.630Z,13.40
2024-01-21T01:23:15.392Z,13.50
2024-01-21T01:24:15.426Z,14.60
2024-01-21T01:25:15.292Z,14.20
2024-01-21T01:26:15.287Z,13.10
2024-01-21T01:27:15.328Z,13.30
2024-01-21T01:28:15.297Z,13.00
2024-01-21T01:29:15.246Z,13.90
2024-01-21T01:30:15.272Z,14.10
2024-01-21T01:31:15.234Z,14.80
2024-01-21T01:32:15.214Z,13.90
2024-01-21T01:33:15.352Z,14.50
2024-01-21T01:34:15.361Z,13.60
2024-01-21T01:35:15.204Z,15.30
2024-01-21T01:36:15.282Z,14.20
2024-01-21T01:37:15.165Z,15.00
2024-01-21T01:38:15.155Z,14.80
2024-01-21T01:39:15.262Z,14.50
2024-01-21T01:40:15.146Z,14.10
2024-01-21T01:41:15.107Z,15.70
2024-01-21T01:42:15.146Z,15.20
2024-01-21T01:43:15.187Z,15.60
2024-01-21T01:44:15.094Z,15.10
2024-01-21T01:45:15.159Z,14.80
2024-01-21T01:46:15.074Z,15.50
2024-01-21T01:47:15.078Z,15.60
2024-01-21T01:48:15.181Z,15.70
2024-01-21T01:49:15.259Z,16.10
2024-01-21T01:50:15.039Z,15.00
2024-01-21T01:51:15.220Z,15.80
2024-01-21T01:52:15.018Z,17.10
2024-01-21T01:53:15.004Z,15.90
2024-01-21T01:54:15.101Z,15.70
2024-01-21T01:55:14.971Z,16.10
2024-01-21T01:56:14.966Z,16.10
2024-01-21T01:57:14.976Z,15.90
2024-01-21T01:58:14.976Z,16.60
2024-01-21T01:59:15.034Z,15.80
2024-01-21T02:00:14.986Z,15.70
2024-01-21T02:01:15.070Z,17.20
2024-01-21T02:02:14.912Z,17.00
2024-01-21T02:03:14.963Z,16.60
2024-01-21T02:04:15.158Z,15.90
2024-01-21T02:05:14.908Z,17.70
2024-01-21T02:06:14.909Z,16.50
2024-01-21T02:07:14.846Z,15.80
2024-01-21T02:08:14.873Z,17.40
2024-01-21T02:09:14.845Z,16.80
2024-01-21T02:10:14.829Z,16.50
2024-01-21T02:11:14.793Z,19.00
2024-01-21T02:12:15.921Z,17.90
2024-01-21T02:13:14.766Z,16.70
2024-01-21T02:14:14.784Z,16.50
2024-01-21T02:15:14.777Z,17.40
2024-01-21T02:16:14.740Z,18.10
2024-01-21T02:17:14.736Z,18.70
2024-01-21T02:18:14.893Z,16.10
2024-01-21T02:19:14.876Z,17.50
2024-01-21T02:20:14.724Z,17.60
2024-01-21T02:21:14.713Z,17.60
2024-01-21T02:22:14.667Z,17.70
2024-01-21T02:23:14.666Z,17.20
2024-01-21T02:24:14.674Z,17.40
2024-01-21T02:25:14.653Z,16.40
2024-01-21T02:26:14.642Z,15.70
2024-01-21T02:27:14.679Z,17.60
2024-01-21T02:28:14.605Z,16.40
2024-01-21T02:29:16.520Z,17.60
2024-01-21T02:30:14.646Z,17.30
2024-01-21T02:31:14.601Z,17.20
2024-01-21T02:32:14.595Z,17.10
2024-01-21T02:33:14.632Z,16.40
2024-01-21T02:34:14.639Z,15.30
2024-01-21T02:35:14.522Z,14.00
2024-01-21T02:36:14.548Z,13.70
2024-01-21T02:37:14.570Z,13.90
2024-01-21T02:38:14.500Z,13.30
2024-01-21T02:39:14.504Z,13.10
2024-01-21T02:40:14.474Z,14.40
2024-01-21T02:41:14.503Z,14.00
2024-01-21T02:42:14.519Z,13.10
2024-01-21T02:43:14.513Z,13.70
2024-01-21T02:44:14.493Z,16.00
2024-01-21T02:45:14.504Z,14.00
2024-01-21T02:46:14.482Z,12.80
2024-01-21T02:47:14.456Z,13.50
2024-01-21T02:48:14.578Z,14.20
2024-01-21T02:49:14.897Z,14.30
2024-01-21T02:50:14.411Z,14.10
2024-01-21T02:51:14.523Z,13.10
2024-01-21T02:52:14.406Z,12.80
2024-01-21T02:53:14.356Z,13.30
2024-01-21T02:54:14.370Z,14.00
2024-01-21T02:55:14.665Z,13.60
2024-01-21T02:56:14.355Z,12.90
2024-01-21T02:57:14.315Z,13.40
2024-01-21T02:58:14.296Z,11.70
2024-01-21T02:59:14.320Z,12.20
2024-01-21T03:00:14.312Z,11.70
2024-01-21T03:01:14.370Z,12.50
2024-01-21T03:02:14.256Z,12.90
2024-01-21T03:03:14.308Z,12.10
2024-01-21T03:04:14.253Z,11.20
2024-01-21T03:05:14.331Z,12.80
2024-01-21T03:06:14.269Z,12.40
2024-01-21T03:07:14.189Z,12.00
2024-01-21T03:08:14.182Z,11.10
2024-01-21T03:09:14.178Z,11.90
2024-01-21T03:10:14.188Z,12.00
2024-01-21T03:11:14.214Z,11.30
2024-01-21T03:12:14.246Z,12.50
2024-01-21T03:13:14.171Z,12.30
2024-01-21T03:14:14.152Z,11.30
2024-01-21T03:15:14.156Z,10.70
2024-01-21T03:16:14.105Z,10.90
2024-01-21T03:17:14.103Z,10.00
2024-01-21T03:18:14.213Z,10.50
2024-01-21T03:19:14.071Z,11.00
2024-01-21T03:20:14.048Z,11.80
2024-01-21T03:21:14.129Z,11.60
2024-01-21T03:22:14.023Z,11.60
2024-01-21T03:23:14.037Z,11.00
2024-01-21T03:24:14.091Z,11.70
2024-01-21T03:25:14.000Z,12.00
2024-01-21T03:26:13.977Z,11.80
2024-01-21T03:27:14.048Z,11.40
2024-01-21T03:28:13.961Z,10.80
2024-01-21T03:29:14.001Z,11.10
2024-01-21T03:30:14.017Z,12.30
2024-01-21T03:31:13.949Z,11.50
2024-01-21T03:32:13.960Z,11.80
2024-01-21T03:33:14.118Z,12.40
2024-01-21T03:34:14.110Z,10.90
2024-01-21T03:35:13.943Z,11.60
2024-01-21T03:36:13.962Z,11.60
2024-01-21T03:37:13.925Z,11.30
2024-01-21T03:38:13.867Z,11.20
2024-01-21T03:39:13.884Z,11.70
2024-01-21T03:40:13.860Z,11.70
2024-01-21T03:41:13.883Z,12.00
2024-01-21T03:42:14.007Z,10.60
2024-01-21T03:43:13.947Z,12.40
2024-01-21T03:44:13.824Z,12.50
2024-01-21T03:45:13.785Z,11.50
2024-01-21T03:46:13.817Z,10.90
2024-01-21T03:47:13.861Z,11.90
2024-01-21T03:48:14.913Z,11.60
2024-01-21T03:49:13.826Z,12.60
2024-01-21T03:50:13.747Z,11.40
2024-01-21T03:51:13.779Z,11.60
2024-01-21T03:52:23.558Z,12.70
2024-01-21T03:53:13.756Z,12.60
2024-01-21T03:54:13.722Z,12.20
2024-01-21T03:55:13.683Z,12.40
2024-01-21T03:56:13.706Z,11.10
2024-01-21T03:57:13.713Z,12.30
2024-01-21T03:58:13.688Z,11.30
2024-01-21T03:59:13.656Z,12.10
2024-01-21T04:00:13.714Z,11.50
2024-01-21T04:01:13.829Z,11.10
2024-01-21T04:02:13.606Z,11.90
2024-01-21T04:03:13.933Z,12.20
2024-01-21T04:04:13.717Z,12.10
2024-01-21T04:05:13.638Z,10.70
2024-01-21T04:06:14.415Z,11.70
2024-01-21T04:07:13.571Z,11.30
2024-01-21T04:08:13.583Z,11.20
2024-01-21T04:09:13.772Z,12.20
2024-01-21T04:10:13.606Z,10.80
2024-01-21T04:11:13.543Z,11.30
2024-01-21T04:12:13.652Z,12.10
2024-01-21T04:13:13.598Z,10.70
2024-01-21T04:14:13.563Z,11.40
2024-01-21T04:15:13.861Z,10.90
2024-01-21T04:16:13.573Z,11.10
2024-01-21T04:17:13.585Z,10.60
2024-01-21T04:18:13.513Z,11.40
2024-01-21T04:19:13.701Z,11.50
2024-01-21T04:20:13.478Z,12.60
2024-01-21T04:21:13.462Z,11.50
2024-01-21T04:22:13.452Z,11.00
2024-01-21T04:23:13.428Z,12.60
2024-01-21T04:24:13.462Z,11.30
2024-01-21T04:25:13.337Z,10.10
2024-01-21T04:26:13.512Z,9.60
2024-01-21T04:27:13.388Z,10.90
2024-01-21T04:28:13.376Z,10.10
2024-01-21T04:29:13.393Z,10.10
2024-01-21T04:30:13.510Z,10.00
2024-01-21T04:31:13.366Z,10.60
2024-01-21T04:32:13.657Z,10.60
2024-01-21T04:33:14.081Z,10.70
2024-01-21T04:34:13.623Z,10.40
2024-01-21T04:35:13.351Z,11.20
2024-01-21T04:36:13.392Z,10.30
2024-01-21T04:37:13.306Z,11.30
2024-01-21T04:38:13.716Z,10.00
2024-01-21T04:39:13.339Z,11.50
2024-01-21T04:40:13.240Z,9.50
2024-01-21T04:41:13.241Z,10.70
2024-01-21T04:42:13.248Z,9.90
2024-01-21T04:43:13.970Z,10.70
2024-01-21T04:44:13.355Z,10.60
2024-01-21T04:45:13.329Z,10.90
2024-01-21T04:46:13.214Z,9.20
2024-01-21T04:47:13.209Z,10.20
2024-01-21T04:48:13.324Z,9.80
2024-01-21T04:49:13.310Z,10.40
2024-01-21T04:50:14.105Z,11.20
2024-01-21T04:51:13.221Z,10.40
2024-01-21T04:52:13.220Z,9.10
2024-01-21T04:53:13.044Z,11.10
2024-01-21T04:54:13.166Z,10.20
2024-01-21T04:55:13.145Z,11.00
2024-01-21T04:56:13.097Z,11.00
2024-01-21T04:57:13.863Z,10.20
2024-01-21T04:58:13.148Z,11.30
2024-01-21T04:59:13.106Z,10.40
2024-01-21T05:00:13.290Z,10.00
2024-01-21T05:01:13.123Z,11.20
2024-01-21T05:02:13.116Z,11.30
2024-01-21T05:03:13.037Z,10.90
2024-01-21T05:04:13.091Z,10.50
2024-01-21T05:05:12.989Z,10.90
2024-01-21T05:06:12.975Z,10.60
2024-01-21T05:07:12.921Z,10.80
2024-01-21T05:08:12.983Z,10.90
2024-01-21T05:09:12.944Z,11.80
2024-01-21T05:10:12.952Z,11.40
2024-01-21T05:11:12.900Z,10.80
2024-01-21T05:12:12.911Z,12.00
2024-01-21T05:13:12.902Z,12.30
2024-01-21T05:14:12.854Z,11.50
2024-01-21T05:15:12.893Z,11.10
2024-01-21T05:16:12.836Z,11.90
2024-01-21T05:17:12.804Z,10.80
2024-01-21T05:18:12.839Z,11.80
2024-01-21T05:19:12.807Z,12.40
2024-01-21T05:20:12.765Z,11.60
2024-01-21T05:21:12.903Z,11.30
2024-01-21T05:22:12.764Z,11.90
2024-01-21T05:23:12.731Z,11.90
2024-01-21T05:24:12.838Z,11.70
2024-01-21T05:25:12.750Z,11.80
2024-01-21T05:26:12.715Z,12.20
2024-01-21T05:27:12.718Z,12.20
2024-01-21T05:28:12.692Z,12.10
2024-01-21T05:29:12.734Z,10.90
2024-01-21T05:30:12.724Z,11.90
2024-01-21T05:31:12.671Z,12.70
2024-01-21T05:32:12.605Z,13.10
2024-01-21T05:33:12.672Z,12.80
2024-01-21T05:34:12.672Z,12.00
2024-01-21T05:35:12.606Z,12.80
2024-01-21T05:36:12.718Z,12.80
2024-01-21T05:37:12.729Z,12.30
2024-01-21T05:38:12.618Z,12.80
2024-01-21T05:39:12.578Z,12.10
2024-01-21T05:40:12.519Z,12.70
2024-01-21T05:41:12.577Z,11.80
2024-01-21T05:42:12.643Z,11.70
2024-01-21T05:43:12.518Z,12.20
2024-01-21T05:44:12.563Z,11.40
2024-01-21T05:45:12.505Z,12.20
2024-01-21T05:46:13.249Z,12.50
2024-01-21T05:47:12.460Z,13.20
2024-01-21T05:48:12.565Z,11.90
2024-01-21T05:49:12.569Z,12.20
2024-01-21T05:50:12.428Z,12.40
2024-01-21T05:51:12.491Z,12.20
2024-01-21T05:52:12.424Z,13.00
2024-01-21T05:53:12.411Z,12.20
2024-01-21T05:54:12.479Z,11.40
2024-01-21T05:55:12.406Z,12.00
2024-01-21T05:56:12.365Z,12.90
2024-01-21T05:57:12.426Z,12.60
2024-01-21T05:58:12.365Z,11.70
2024-01-21T05:59:12.371Z,12.60
2024-01-21T06:00:12.446Z,12.20
2024-01-21T06:01:12.376Z,12.60
2024-01-21T06:02:12.482Z,12.40
2024-01-21T06:03:12.304Z,11.80
2024-01-21T06:04:12.239Z,12.20
2024-01-21T06:05:12.265Z,12.30
2024-01-21T06:06:12.304Z,13.00
2024-01-21T06:07:12.227Z,10.90
2024-01-21T06:08:12.222Z,12.30
2024-01-21T06:09:12.320Z,11.10
2024-01-21T06:10:12.185Z,12.10
2024-01-21T06:11:12.190Z,12.50
2024-01-21T06:12:12.184Z,12.20
2024-01-21T06:13:12.162Z,11.40
2024-01-21T06:14:12.140Z,13.10
2024-01-21T06:15:12.228Z,13.60
2024-01-21T06:16:12.148Z,12.10
2024-01-21T06:17:12.228Z,12.50
2024-01-21T06:18:12.217Z,12.60
2024-01-21T06:19:12.279Z,12.20
2024-01-21T06:20:12.088Z,11.40
2024-01-21T06:21:12.121Z,12.20
2024-01-21T06:22:12.048Z,12.20
2024-01-21T06:23:12.070Z,11.10
2024-01-21T06:24:12.046Z,12.00
2024-01-21T06:25:12.027Z,12.10
2024-01-21T06:26:12.000Z,12.80
2024-01-21T06:27:12.039Z,12.40
2024-01-21T06:28:11.988Z,11.80
2024-01-21T06:29:12.045Z,12.20
2024-01-21T06:30:12.099Z,13.70
2024-01-21T06:31:11.987Z,12.80
2024-01-21T06:32:11.961Z,12.20
2024-01-21T06:33:12.046Z,12.20
2024-01-21T06:34:11.977Z,12.60
2024-01-21T06:35:11.974Z,12.70
2024-01-21T06:36:11.955Z,12.20
2024-01-21T06:37:11.882Z,13.20
2024-01-21T06:38:11.878Z,12.00
2024-01-21T06:39:11.868Z,14.00
2024-01-21T06:40:12.005Z,12.70
2024-01-21T06:41:11.881Z,13.10
2024-01-21T06:42:11.857Z,12.80
2024-01-21T06:43:11.816Z,12.80
2024-01-21T06:44:11.815Z,13.30
2024-01-21T06:45:11.892Z,12.80
2024-01-21T06:46:11.808Z,13.60
2024-01-21T06:47:11.790Z,11.80
2024-01-21T06:48:11.843Z,12.90
2024-01-21T06:49:11.844Z,13.30
2024-01-21T06:50:11.768Z,12.30
2024-01-21T06:51:11.765Z,12.20
2024-01-21T06:52:11.888Z,12.80
2024-01-21T06:53:11.703Z,13.50
2024-01-21T06:54:11.765Z,12.60
2024-01-21T06:55:11.685Z,14.30
2024-01-21T06:56:11.672Z,13.30
2024-01-21T06:57:11.753Z,14.10
2024-01-21T06:58:11.661Z,12.90
2024-01-21T06:59:13.328Z,12.70
2024-01-21T07:00:11.629Z,13.30
2024-01-21T07:01:11.862Z,14.40
2024-01-21T07:02:11.683Z,15.00
2024-01-21T07:03:11.654Z,14.80
2024-01-21T07:04:11.775Z,14.50
2024-01-21T07:05:11.572Z,14.30
2024-01-21T07:06:11.699Z,14.40
2024-01-21T07:07:11.662Z,15.80
2024-01-21T07:08:11.598Z,14.40
2024-01-21T07:09:11.584Z,14.60
2024-01-21T07:10:11.637Z,15.70
2024-01-21T07:11:11.581Z,14.20
2024-01-21T07:12:11.562Z,15.70
2024-01-21T07:13:11.487Z,15.60
2024-01-21T07:14:11.479Z,15.00
2024-01-21T07:15:11.549Z,15.80
2024-01-21T07:16:11.513Z,16.70
2024-01-21T07:17:11.467Z,15.20
2024-01-21T07:18:11.576Z,15.80
2024-01-21T07:19:11.582Z,17.20
2024-01-21T07:20:11.480Z,16.10
2024-01-21T07:21:11.532Z,14.40
2024-01-21T07:22:11.486Z,15.40
2024-01-21T07:23:11.508Z,15.70
2024-01-21T07:24:11.409Z,15.50
2024-01-21T07:25:11.432Z,15.50
2024-01-21T07:26:11.345Z,15.80
2024-01-21T07:27:11.396Z,16.70
2024-01-21T07:28:11.364Z,15.30
2024-01-21T07:29:11.381Z,14.70
2024-01-21T07:30:11.298Z,14.80
2024-01-21T07:31:11.316Z,15.50
2024-01-21T07:32:11.289Z,14.30
2024-01-21T07:33:11.445Z,15.70
2024-01-21T07:34:11.436Z,15.30
2024-01-21T07:35:11.259Z,15.90
2024-01-21T07:36:11.351Z,15.40
2024-01-21T07:37:11.229Z,16.10
2024-01-21T07:38:11.209Z,17.00
2024-01-21T07:39:11.261Z,16.20
2024-01-21T07:40:11.229Z,15.40
2024-01-21T07:41:11.186Z,15.80
2024-01-21T07:42:11.175Z,15.90
2024-01-21T07:43:11.221Z,16.80
2024-01-21T07:44:11.148Z,16.30
2024-01-21T07:45:11.168Z,16.30
2024-01-21T07:46:11.218Z,16.90
2024-01-21T07:47:11.106Z,16.60
2024-01-21T07:48:11.191Z,16.10
2024-01-21T07:49:11.299Z,16.60
2024-01-21T07:50:11.081Z,16.20
2024-01-21T07:51:11.086Z,15.50
2024-01-21T07:52:11.177Z,15.70
2024-01-21T07:53:11.342Z,16.80
2024-01-21T07:54:11.070Z,15.70
2024-01-21T07:55:13.649Z,17.70
2024-01-21T07:56:11.014Z,16.50
2024-01-21T07:57:11.033Z,16.10
2024-01-21T07:58:10.995Z,16.10
2024-01-21T07:59:11.006Z,16.00
2024-01-21T08:00:10.967Z,16.90
2024-01-21T08:01:10.990Z,16.50
2024-01-21T08:02:10.952Z,16.20
2024-01-21T08:03:11.363Z,15.60
2024-01-21T08:04:11.007Z,15.20
2024-01-21T08:05:10.929Z,16.30
2024-01-21T08:06:11.402Z,17.70
2024-01-21T08:07:10.923Z,17.50
2024-01-21T08:08:12.098Z,16.20
2024-01-21T08:09:10.884Z,16.40
2024-01-21T08:10:11.137Z,16.10
2024-01-21T08:11:10.853Z,16.70
2024-01-21T08:12:10.839Z,18.40
2024-01-21T08:13:10.843Z,16.00
2024-01-21T08:14:10.883Z,17.20
2024-01-21T08:15:10.810Z,17.70
2024-01-21T08:16:10.789Z,16.30
2024-01-21T08:17:10.781Z,17.40
2024-01-21T08:18:10.767Z,16.80
2024-01-21T08:19:10.842Z,17.30
2024-01-21T08:20:10.861Z,16.80
2024-01-21T08:21:10.748Z,17.60
2024-01-21T08:22:10.897Z,16.70
2024-01-21T08:23:10.742Z,17.00
2024-01-21T08:24:10.711Z,16.90
2024-01-21T08:25:10.760Z,16.70
2024-01-21T08:26:10.720Z,16.00
2024-01-21T08:27:10.731Z,15.40
2024-01-21T08:28:10.671Z,16.10
2024-01-21T08:29:10.661Z,16.00
2024-01-21T08:30:10.680Z,15.70
2024-01-21T08:31:10.695Z,16.10
2024-01-21T08:32:10.652Z,15.60
2024-01-21T08:33:10.662Z,16.00
2024-01-21T08:34:10.685Z,14.50
2024-01-21T08:35:10.604Z,14.80
2024-01-21T08:36:10.591Z,15.60
2024-01-21T08:37:10.572Z,14.70
2024-01-21T08:38:10.576Z,14.80
2024-01-21T08:39:10.782Z,14.40
2024-01-21T08:40:10.574Z,15.40
2024-01-21T08:41:10.553Z,14.90
2024-01-21T08:42:10.582Z,15.40
2024-01-21T08:43:10.561Z,14.80
2024-01-21T08:44:10.528Z,14.70
2024-01-21T08:45:10.495Z,14.40
2024-01-21T08:46:10.570Z,15.10
2024-01-21T08:47:11.178Z,15.80
2024-01-21T08:48:10.532Z,14.70
2024-01-21T08:49:10.538Z,15.00
2024-01-21T08:50:10.449Z,17.50
2024-01-21T08:51:10.420Z,14.90
2024-01-21T08:52:10.454Z,15.40
2024-01-21T08:53:10.405Z,16.30
2024-01-21T08:54:10.384Z,16.90
2024-01-21T08:55:10.422Z,16.30
2024-01-21T08:56:10.390Z,15.00
2024-01-21T08:57:10.371Z,17.30
2024-01-21T08:58:10.353Z,17.10
2024-01-21T08:59:10.323Z,16.30
2024-01-21T09:00:12.707Z,18.00
2024-01-21T09:01:10.449Z,15.20
2024-01-21T09:02:10.288Z,17.40
2024-01-21T09:03:10.285Z,17.00
2024-01-21T09:04:10.385Z,18.00
2024-01-21T09:05:10.388Z,17.40
2024-01-21T09:06:10.327Z,16.50
2024-01-21T09:07:10.413Z,16.60
2024-01-21T09:08:10.241Z,16.70
2024-01-21T09:09:10.227Z,17.70
2024-01-21T09:10:10.502Z,17.20
2024-01-21T09:11:10.190Z,15.90
2024-01-21T09:12:10.485Z,15.40
2024-01-21T09:13:10.262Z,17.20
2024-01-21T09:14:10.181Z,17.80
2024-01-21T09:15:10.169Z,18.10
2024-01-21T09:16:10.173Z,16.80
2024-01-21T09:17:10.172Z,18.70
2024-01-21T09:18:10.195Z,16.70
2024-01-21T09:19:10.211Z,17.80
2024-01-21T20:57:08.819Z,11.50
2024-01-21T20:58:08.697Z,11.40
2024-01-21T20:59:08.707Z,11.80
2024-01-21T21:00:08.756Z,11.00
2024-01-21T21:01:13.918Z,11.30
2024-01-21T21:02:09.648Z,12.10
2024-01-21T21:03:08.760Z,11.90
2024-01-21T21:04:08.636Z,11.30
2024-01-21T21:05:08.648Z,10.50
2024-01-21T21:06:10.155Z,11.20
2024-01-21T21:07:08.550Z,11.30
2024-01-21T21:08:08.579Z,11.20
2024-01-21T21:09:08.671Z,11.40
2024-01-21T21:10:08.544Z,12.00
2024-01-21T21:11:08.578Z,11.40
2024-01-21T21:12:08.631Z,12.00
2024-01-21T21:13:08.514Z,13.00
2024-01-21T21:14:08.509Z,12.20
2024-01-21T21:15:08.709Z,10.80
2024-01-21T21:16:08.459Z,11.20
2024-01-21T21:17:08.541Z,10.80
2024-01-21T21:18:08.503Z,11.90
2024-01-21T21:19:09.169Z,12.40
2024-01-21T21:20:08.464Z,10.70
2024-01-21T21:21:10.462Z,11.40
2024-01-21T21:22:08.423Z,11.80
2024-01-21T21:23:08.610Z,11.70
2024-01-21T21:24:08.473Z,10.70
2024-01-21T21:25:08.398Z,11.70
2024-01-21T21:26:08.348Z,11.70
2024-01-21T21:27:08.402Z,12.10
2024-01-21T21:28:08.585Z,11.80
2024-01-21T21:29:08.380Z,11.80
2024-01-21T21:30:08.345Z,10.80
2024-01-21T21:31:08.312Z,11.70
2024-01-21T21:32:08.290Z,11.70
2024-01-21T21:33:08.379Z,11.80
2024-01-21T21:34:08.675Z,10.70
2024-01-21T21:35:08.261Z,10.90
2024-01-21T21:36:08.279Z,11.10
2024-01-21T21:37:08.241Z,11.30
2024-01-21T21:38:08.228Z,11.30
2024-01-21T21:39:08.302Z,11.60
2024-01-21T21:40:08.233Z,10.90
2024-01-21T21:41:08.182Z,11.20
2024-01-21T21:42:08.206Z,10.90
2024-01-21T21:43:08.183Z,11.50
2024-01-21T21:44:08.272Z,9.90
2024-01-21T21:45:08.208Z,10.40
2024-01-21T21:46:08.383Z,11.50
2024-01-21T21:47:08.116Z,10.30
2024-01-21T21:48:09.008Z,10.10
2024-01-21T21:49:08.188Z,10.40
2024-01-21T21:50:08.082Z,9.90
2024-01-21T21:51:08.130Z,11.20
2024-01-21T21:52:08.145Z,10.60
2024-01-21T21:53:08.078Z,9.60
2024-01-21T21:54:08.273Z,10.60
2024-01-21T21:55:08.061Z,11.30
2024-01-21T21:56:08.085Z,10.60
2024-01-21T21:57:08.171Z,11.50
2024-01-21T21:58:08.084Z,10.40
2024-01-21T21:59:08.195Z,11.00
2024-01-21T22:00:08.359Z,9.80
2024-01-21T22:01:08.005Z,10.40
2024-01-21T22:02:08.008Z,10.40
2024-01-21T22:03:08.025Z,10.90
2024-01-21T22:04:08.409Z,9.80
2024-01-21T22:05:07.936Z,10.10
2024-01-21T22:06:08.430Z,10.20
2024-01-21T22:07:08.068Z,10.10
2024-01-21T22:08:07.937Z,10.30
2024-01-21T22:09:07.960Z,9.60
2024-01-21T22:10:07.927Z,9.90
2024-01-21T22:11:07.831Z,9.70
2024-01-21T22:12:08.110Z,10.90
2024-01-21T22:13:07.853Z,10.10
2024-01-21T22:14:08.043Z,10.20
2024-01-21T22:15:08.009Z,9.90
2024-01-21T22:16:07.913Z,10.20
2024-01-21T22:17:07.806Z,9.40
2024-01-21T22:18:07.837Z,9.50
2024-01-21T22:19:07.782Z,9.20
2024-01-21T22:20:08.011Z,9.80
2024-01-21T22:21:09.645Z,10.30
2024-01-21T22:22:08.488Z,9.60
2024-01-21T22:23:08.748Z,9.80
2024-01-21T22:24:16.407Z,10.10
2024-01-21T22:25:08.772Z,8.90
2024-01-21T22:26:09.038Z,8.60
2024-01-21T22:27:08.375Z,9.20
2024-01-21T22:28:07.951Z,9.00
2024-01-21T22:29:08.084Z,8.70
2024-01-21T22:30:08.113Z,9.50
2024-01-21T22:31:07.821Z,9.10
2024-01-21T22:32:07.773Z,8.10
2024-01-21T22:33:08.335Z,9.90
2024-01-21T22:34:08.256Z,8.30
2024-01-21T22:35:08.425Z,9.00
2024-01-21T22:36:08.326Z,8.50
2024-01-21T22:37:08.504Z,8.90
2024-01-21T22:38:07.868Z,9.20
2024-01-21T22:39:08.859Z,8.50
2024-01-21T22:40:07.958Z,9.40
2024-01-21T22:41:08.069Z,7.90
2024-01-21T22:42:08.130Z,9.40
2024-01-21T22:43:11.805Z,9.20
2024-01-21T22:44:07.690Z,8.40
2024-01-21T22:45:09.346Z,8.40
2024-01-21T22:46:07.916Z,9.20
2024-01-21T22:47:08.144Z,9.20
2024-01-21T22:48:10.372Z,8.40
2024-01-21T22:49:08.356Z,8.10
2024-01-21T22:50:11.934Z,8.00
2024-01-21T22:51:08.441Z,8.00
2024-01-21T22:52:08.720Z,8.20
2024-01-21T22:53:10.455Z,8.40
2024-01-21T22:54:09.526Z,8.20
2024-01-21T22:55:09.345Z,7.80
2024-01-21T22:56:09.034Z,7.80
2024-01-21T22:57:08.198Z,8.30
2024-01-21T22:58:09.897Z,8.30
2024-01-21T22:59:09.543Z,8.20
2024-01-21T23:00:09.965Z,8.30
2024-01-21T23:01:09.595Z,8.50
2024-01-21T23:02:11.607Z,8.60
2024-01-21T23:03:08.030Z,8.40
2024-01-21T23:04:07.656Z,7.60
2024-01-21T23:05:09.447Z,7.50
2024-01-21T23:06:07.902Z,7.90
2024-01-21T23:07:08.287Z,7.30
2024-01-21T23:08:07.609Z,8.10
2024-01-21T23:09:07.814Z,7.80
2024-01-21T23:10:07.710Z,7.90
2024-01-21T23:11:08.334Z,6.90
2024-01-21T23:12:07.550Z,7.80
2024-01-21T23:13:08.103Z,8.80
2024-01-21T23:14:08.672Z,7.60
2024-01-21T23:15:07.392Z,7.60
2024-01-21T23:16:08.497Z,7.00
2024-01-21T23:17:07.848Z,6.90
2024-01-21T23:18:09.722Z,7.70
2024-01-21T23:19:08.919Z,7.60
2024-01-21T23:20:07.640Z,7.80
2024-01-21T23:21:07.981Z,6.80
2024-01-21T23:22:07.793Z,6.70
2024-01-21T23:23:07.631Z,6.80
2024-01-21T23:24:07.462Z,7.10
2024-01-21T23:25:07.520Z,6.30
2024-01-21T23:26:07.114Z,6.90
2024-01-21T23:27:07.399Z,6.30
2024-01-21T23:28:07.150Z,6.40
2024-01-21T23:29:07.111Z,6.50
2024-01-21T23:30:07.207Z,6.50
2024-01-21T23:31:07.205Z,7.00
2024-01-21T23:32:07.066Z,6.40
2024-01-21T23:33:07.121Z,7.30
2024-01-21T23:34:07.123Z,6.50
2024-01-21T23:35:06.941Z,6.90
2024-01-21T23:36:07.068Z,6.70
2024-01-21T23:37:07.010Z,6.60
2024-01-21T23:38:06.871Z,6.50
2024-01-21T23:39:06.877Z,6.80
2024-01-21T23:40:06.868Z,6.50
2024-01-21T23:41:06.947Z,7.00
2024-01-21T23:42:06.956Z,7.00
2024-01-21T23:43:06.842Z,6.20
2024-01-21T23:44:06.811Z,7.10
2024-01-21T23:45:07.016Z,6.90
2024-01-21T23:46:06.796Z,6.60
2024-01-21T23:47:06.826Z,6.40
2024-01-21T23:48:06.887Z,7.00
2024-01-21T23:49:06.883Z,6.40
2024-01-21T23:50:06.939Z,6.40
2024-01-21T23:51:06.740Z,6.90
2024-01-21T23:52:06.741Z,7.00
2024-01-21T23:53:06.678Z,6.00
2024-01-21T23:54:06.819Z,6.40
2024-01-21T23:55:06.703Z,6.00
2024-01-21T23:56:06.655Z,6.30
2024-01-21T23:57:06.669Z,5.70
2024-01-21T23:58:06.661Z,6.20
2024-01-21T23:59:06.682Z,6.00
